createdAt,value
2019-04-20T00:00:37.103Z,57.18
2019-04-20T00:03:09.693Z,56.18
2019-04-20T00:05:43.427Z,56.87
2019-04-20T00:08:23.389Z,56.74
2019-04-20T00:10:57.027Z,56.94
2019-04-20T00:13:37.872Z,56.99
2019-04-20T00:16:00.014Z,57.18
2019-04-20T00:18:41.092Z,57.23
2019-04-20T00:21:24.802Z,57.37
2019-04-20T00:24:01.031Z,58.23
2019-04-20T00:27:06.474Z,58.68
2019-04-20T00:29:24.893Z,57.50
2019-04-20T00:31:52.329Z,57.84
2019-04-20T00:34:24.756Z,57.84
2019-04-20T00:36:51.959Z,58.46
2019-04-20T00:39:25.864Z,58.54
2019-04-20T00:42:03.426Z,60.19
2019-04-20T00:44:37.358Z,60.38
2019-04-20T00:47:16.912Z,59.49
2019-04-20T00:49:52.754Z,59.67
2019-04-20T00:52:47.187Z,59.03
2019-04-20T00:54:49.950Z,59.65
2019-04-20T00:57:34.696Z,59.29
2019-04-20T01:00:17.613Z,59.84
2019-04-20T01:02:43.362Z,59.78
2019-04-20T01:05:43.266Z,59.24
2019-04-20T01:08:00.587Z,59.47
2019-04-20T01:10:39.500Z,59.25
2019-04-20T01:13:15.070Z,59.17
2019-04-20T01:15:51.595Z,58.81
2019-04-20T01:18:17.580Z,58.89
2019-04-20T01:20:51.389Z,59.47
2019-04-20T01:23:34.075Z,59.75
2019-04-20T01:26:05.507Z,59.72
2019-04-20T01:28:46.815Z,59.95
2019-04-20T01:31:18.448Z,59.57
2019-04-20T01:37:00.972Z,59.35
2019-04-20T01:39:58.615Z,59.37
2019-04-20T01:42:38.291Z,59.57
2019-04-20T01:45:30.797Z,60.11
2019-04-20T01:48:01.233Z,59.89
2019-04-20T01:54:06.292Z,59.92
2019-04-20T01:56:51.982Z,60.03
2019-04-20T01:59:51.756Z,60.05
2019-04-20T02:02:26.072Z,60.10
2019-04-20T02:05:11.465Z,60.23
2019-04-20T02:07:55.412Z,60.32
2019-04-20T02:10:39.526Z,60.56
2019-04-20T02:13:19.865Z,60.91
2019-04-20T02:15:56.365Z,60.99
2019-04-20T02:18:36.465Z,60.93
2019-04-20T02:21:19.647Z,60.78
2019-04-20T02:23:46.219Z,60.76
2019-04-20T02:26:11.108Z,60.77
2019-04-20T02:29:15.797Z,60.89
2019-04-20T02:39:51.404Z,61.26
2019-04-20T02:42:34.239Z,61.44
2019-04-20T02:45:11.207Z,61.35
2019-04-20T02:47:41.289Z,61.49
2019-04-20T02:50:15.141Z,61.74
2019-04-20T02:52:51.033Z,61.82
2019-04-20T02:55:36.384Z,61.95
2019-04-20T03:00:25.111Z,62.48
2019-04-20T03:02:46.123Z,62.73
2019-04-20T03:05:21.625Z,63.07
2019-04-20T03:08:05.252Z,63.11
2019-04-20T03:10:46.352Z,63.26
2019-04-20T03:13:15.425Z,63.26
2019-04-20T03:15:51.886Z,63.56
2019-04-20T03:18:19.313Z,63.11
2019-04-20T03:21:00.818Z,63.06
2019-04-20T03:23:37.228Z,62.88
2019-04-20T03:26:19.059Z,63.18
2019-04-20T03:28:54.092Z,63.26
2019-04-20T03:31:59.583Z,62.90
2019-04-20T03:36:53.759Z,62.72
2019-04-20T03:39:18.084Z,62.52
2019-04-20T03:41:43.064Z,62.55
2019-04-20T03:44:15.649Z,62.37
2019-04-20T03:46:52.240Z,62.37
2019-04-20T03:49:42.302Z,62.05
2019-04-20T03:52:23.341Z,61.89
2019-04-20T03:55:16.435Z,61.67
2019-04-20T03:58:15.307Z,62.08
2019-04-20T04:00:59.924Z,62.02
2019-04-20T04:03:53.384Z,61.75
2019-04-20T04:06:17.781Z,61.34
2019-04-20T04:08:58.709Z,61.70
2019-04-20T04:11:35.119Z,60.71
2019-04-20T04:13:52.525Z,59.36
2019-04-20T04:16:34.172Z,57.08
2019-04-20T04:19:10.025Z,53.61
2019-04-20T04:21:48.946Z,53.70
2019-04-20T04:24:22.592Z,55.02
2019-04-20T04:27:00.765Z,54.42
2019-04-20T04:29:40.128Z,54.26
2019-04-20T04:32:20.665Z,54.81
2019-04-20T04:34:43.277Z,54.07
2019-04-20T04:37:20.363Z,50.11
2019-04-20T04:40:06.099Z,50.36
2019-04-20T04:42:36.627Z,49.00
2019-04-20T04:44:53.686Z,48.03
2019-04-20T04:47:19.835Z,47.25
2019-04-20T04:49:59.966Z,48.76
2019-04-20T04:52:36.030Z,47.81
2019-04-20T04:55:11.268Z,47.81
2019-04-20T04:57:36.691Z,48.10
2019-04-20T05:00:16.647Z,48.20
2019-04-20T05:02:50.633Z,47.20
2019-04-20T05:05:41.359Z,47.89
2019-04-20T05:08:08.823Z,48.20
2019-04-20T05:10:33.015Z,46.08
2019-04-20T05:13:07.135Z,44.48
2019-04-20T05:15:52.542Z,43.67
2019-04-20T05:18:41.788Z,43.15
2019-04-20T05:21:11.837Z,41.42
2019-04-20T05:23:37.522Z,40.63
2019-04-20T05:26:30.998Z,41.52
2019-04-20T05:28:59.098Z,37.15
2019-04-20T05:31:30.906Z,31.55
2019-04-20T05:34:20.571Z,29.37
2019-04-20T05:36:49.273Z,27.05
2019-04-20T05:39:35.137Z,27.05
2019-04-20T05:42:06.179Z,27.43
2019-04-20T05:44:42.747Z,29.20
2019-04-20T05:47:11.311Z,31.42
2019-04-20T05:49:46.797Z,32.56
2019-04-20T05:52:47.227Z,33.61
2019-04-20T05:54:56.238Z,33.92
2019-04-20T05:57:34.923Z,33.59
2019-04-20T06:00:08.336Z,34.25
2019-04-20T06:02:42.161Z,34.69
2019-04-20T06:05:20.924Z,34.81
2019-04-20T06:07:50.595Z,34.81
2019-04-20T06:10:27.395Z,35.23
2019-04-20T06:12:57.843Z,35.70
2019-04-20T06:15:30.878Z,35.88
2019-04-20T06:18:06.623Z,36.07
2019-04-20T06:20:47.844Z,36.16
2019-04-20T06:23:47.487Z,34.96
2019-04-20T06:26:33.538Z,34.96
2019-04-20T06:28:43.874Z,34.51
2019-04-20T06:31:28.212Z,33.68
2019-04-20T06:42:19.339Z,33.28
2019-04-20T06:44:41.191Z,32.87
2019-04-20T06:47:30.686Z,33.20
2019-04-20T06:49:42.463Z,32.92
2019-04-20T06:55:35.008Z,31.88
2019-04-20T06:57:45.069Z,30.82
2019-04-20T07:00:30.803Z,31.86
2019-04-20T07:02:56.409Z,30.86
2019-04-20T07:05:28.547Z,31.40
2019-04-20T07:08:16.670Z,31.63
2019-04-20T07:10:39.377Z,31.49
2019-04-20T07:13:07.718Z,31.44
2019-04-20T07:15:40.186Z,31.33
2019-04-20T07:18:23.371Z,29.46
2019-04-20T07:21:16.096Z,30.00
2019-04-20T07:23:32.745Z,30.11
2019-04-20T07:26:12.737Z,29.98
2019-04-20T07:28:47.533Z,29.07
2019-04-20T07:31:14.128Z,29.36
2019-04-20T07:33:52.171Z,28.25
2019-04-20T07:36:24.441Z,28.92
2019-04-20T07:39:04.210Z,28.69
2019-04-20T07:41:43.339Z,28.37
2019-04-20T07:44:10.205Z,28.30
2019-04-20T07:46:57.906Z,28.32
2019-04-20T07:49:18.138Z,28.50
2019-04-20T07:51:35.573Z,28.31
2019-04-20T07:54:28.493Z,28.01
2019-04-20T07:56:58.711Z,27.60
2019-04-20T07:59:27.268Z,26.50
2019-04-20T08:02:16.236Z,27.37
2019-04-20T08:04:49.974Z,26.95
2019-04-20T08:07:07.402Z,27.00
2019-04-20T08:09:46.511Z,26.08
2019-04-20T08:12:49.906Z,25.89
2019-04-20T08:15:24.007Z,25.04
2019-04-20T08:17:58.594Z,24.64
2019-04-20T08:20:25.812Z,24.66
2019-04-20T08:23:12.329Z,23.51
2019-04-20T08:25:30.583Z,23.08
2019-04-20T08:27:57.088Z,23.41
2019-04-20T08:31:06.576Z,23.66
2019-04-20T08:33:50.286Z,23.58
2019-04-20T08:36:22.863Z,24.53
2019-04-20T08:41:20.573Z,24.73
2019-04-20T08:44:09.842Z,24.33
2019-04-20T08:46:47.004Z,24.68
2019-04-20T08:49:13.208Z,25.35
2019-04-20T08:51:49.780Z,23.34
2019-04-20T08:54:20.102Z,24.31
2019-04-20T08:56:43.345Z,24.50
2019-04-20T08:59:09.498Z,23.59
2019-04-20T09:01:44.493Z,23.37
2019-04-20T09:04:24.232Z,23.76
2019-04-20T09:07:04.009Z,23.04
2019-04-20T09:09:49.502Z,22.50
2019-04-20T09:12:15.860Z,22.02
2019-04-20T09:14:38.488Z,20.62
2019-04-20T09:17:21.211Z,20.76
2019-04-20T09:19:56.904Z,20.62
2019-04-20T09:22:40.960Z,21.67
2019-04-20T09:27:52.383Z,21.09
2019-04-20T09:30:33.153Z,21.08
2019-04-20T09:33:35.999Z,21.01
2019-04-20T09:36:02.352Z,20.58
2019-04-20T09:38:40.822Z,20.49
2019-04-20T09:41:27.560Z,20.42
2019-04-20T09:43:36.867Z,20.07
2019-04-20T09:46:10.272Z,19.33
2019-04-20T09:48:53.593Z,18.23
2019-04-20T09:51:37.849Z,19.27
2019-04-20T09:54:06.465Z,18.31
2019-04-20T09:56:39.500Z,18.78
2019-04-20T09:59:25.137Z,18.95
2019-04-20T10:01:43.674Z,18.06
2019-04-20T10:04:13.011Z,19.08
2019-04-20T10:06:47.557Z,18.92
2019-04-20T10:09:27.990Z,19.55
2019-04-20T10:11:55.404Z,20.32
2019-04-20T10:14:28.912Z,19.56
2019-04-20T10:17:02.193Z,19.79
2019-04-20T10:19:39.121Z,19.51
2019-04-20T10:22:11.125Z,19.22
2019-04-20T10:24:45.937Z,18.92
2019-04-20T10:27:18.746Z,18.81
2019-04-20T10:29:51.615Z,19.06
2019-04-20T10:32:33.080Z,19.01
2019-04-20T10:35:00.831Z,19.80
2019-04-20T10:37:35.484Z,18.88
2019-04-20T10:40:08.689Z,19.19
2019-04-20T10:42:41.858Z,19.04
2019-04-20T10:45:15.042Z,19.43
2019-04-20T10:47:47.795Z,19.34
2019-04-20T10:50:20.976Z,19.30
2019-04-20T10:52:54.043Z,19.35
2019-04-20T10:55:27.266Z,19.35
2019-04-20T10:58:00.130Z,18.96
2019-04-20T11:00:45.914Z,19.88
2019-04-20T11:03:19.739Z,19.45
2019-04-20T11:05:53.043Z,19.06
2019-04-20T11:08:26.578Z,19.26
2019-04-20T11:11:09.282Z,19.02
2019-04-20T11:13:35.270Z,18.81
2019-04-20T11:16:08.597Z,18.24
2019-04-20T11:18:41.604Z,18.44
2019-04-20T11:21:15.468Z,17.75
2019-04-20T11:23:49.928Z,17.30
2019-04-20T11:26:24.364Z,17.27
2019-04-20T11:28:57.982Z,17.83
2019-04-20T11:31:37.398Z,17.32
2019-04-20T11:34:05.975Z,16.91
2019-04-20T11:36:39.213Z,18.95
2019-04-20T11:39:14.587Z,17.02
2019-04-20T11:41:47.697Z,17.04
2019-04-20T11:44:20.370Z,17.59
2019-04-20T11:46:52.895Z,18.22
2019-04-20T11:49:25.771Z,16.42
2019-04-20T11:51:59.492Z,17.47
2019-04-20T11:54:32.511Z,17.80
2019-04-20T11:57:05.348Z,18.17
2019-04-20T11:59:39.081Z,18.32
2019-04-20T12:02:25.027Z,18.99
2019-04-20T12:05:10.034Z,18.88
2019-04-20T12:07:35.229Z,18.90
2019-04-20T12:10:14.842Z,18.50
2019-04-20T12:12:48.687Z,18.72
2019-04-20T12:15:18.833Z,19.00
2019-04-20T12:17:51.690Z,19.59
2019-04-20T12:20:24.991Z,19.58
2019-04-20T12:22:58.164Z,19.40
2019-04-20T12:25:33.331Z,19.20
2019-04-20T12:28:05.725Z,19.97
2019-04-20T12:30:39.756Z,19.66
2019-04-20T12:33:13.577Z,19.69
2019-04-20T12:35:47.657Z,18.48
2019-04-20T12:38:21.068Z,17.80
2019-04-20T12:40:53.950Z,17.87
2019-04-20T12:43:27.763Z,16.87
2019-04-20T12:46:02.091Z,16.97
2019-04-20T12:48:35.522Z,17.70
2019-04-20T12:51:08.235Z,18.68
2019-04-20T12:53:40.866Z,18.58
2019-04-20T12:56:14.654Z,18.47
2019-04-20T12:58:47.525Z,17.37
2019-04-20T13:01:21.993Z,18.29
2019-04-20T13:03:55.338Z,17.60
2019-04-20T13:06:29.925Z,18.84
2019-04-20T13:09:05.701Z,19.83
2019-04-20T13:11:50.753Z,19.51
2019-04-20T13:14:50.591Z,20.11
2019-04-20T13:17:24.110Z,20.99
2019-04-20T13:19:57.507Z,20.37
2019-04-20T13:22:30.865Z,20.12
2019-04-20T13:25:05.260Z,20.42
2019-04-20T13:27:38.889Z,19.58
2019-04-20T13:30:13.225Z,19.94
2019-04-20T13:32:47.799Z,19.81
2019-04-20T13:35:20.660Z,18.61
2019-04-20T13:37:54.134Z,18.15
2019-04-20T13:40:27.985Z,17.92
2019-04-20T13:43:01.672Z,17.77
2019-04-20T13:45:37.030Z,19.59
2019-04-20T13:48:11.016Z,19.96
2019-04-20T13:50:44.228Z,17.97
2019-04-20T13:53:17.078Z,16.86
2019-04-20T13:55:49.984Z,16.65
2019-04-20T13:58:40.639Z,16.15
2019-04-20T14:01:18.834Z,16.78
2019-04-20T14:04:10.413Z,15.10
2019-04-20T14:06:44.070Z,15.38
2019-04-20T14:09:17.194Z,16.56
2019-04-20T14:11:49.741Z,16.62
2019-04-20T14:14:23.440Z,17.58
2019-04-20T14:16:56.985Z,17.67
2019-04-20T14:19:29.530Z,17.95
2019-04-20T14:22:02.315Z,18.39
2019-04-20T14:24:35.055Z,18.50
2019-04-20T14:27:08.794Z,18.72
2019-04-20T14:29:43.112Z,18.88
2019-04-20T14:32:16.820Z,19.87
2019-04-20T14:34:49.566Z,20.40
2019-04-20T14:37:22.685Z,20.84
2019-04-20T14:39:56.443Z,20.47
2019-04-20T14:42:37.380Z,20.34
2019-04-20T14:45:06.766Z,20.34
2019-04-20T14:47:39.623Z,20.09
2019-04-20T14:50:14.025Z,19.63
2019-04-20T14:52:47.231Z,19.90
2019-04-20T14:55:21.148Z,20.61
2019-04-20T14:57:55.466Z,21.68
2019-04-20T15:00:51.009Z,21.20
2019-04-20T15:03:35.408Z,21.57
2019-04-20T15:06:07.444Z,21.47
2019-04-20T15:08:40.780Z,21.12
2019-04-20T15:11:14.789Z,21.68
2019-04-20T15:13:47.225Z,21.73
2019-04-20T15:16:20.339Z,21.58
2019-04-20T15:18:56.460Z,22.30
2019-04-20T15:21:31.484Z,20.30
2019-04-20T15:24:05.501Z,21.24
2019-04-20T15:26:38.690Z,21.24
2019-04-20T15:29:12.511Z,21.58
2019-04-20T15:31:45.975Z,21.75
2019-04-20T15:34:19.177Z,22.05
2019-04-20T15:36:52.033Z,22.32
2019-04-20T15:39:25.280Z,22.60
2019-04-20T15:41:58.886Z,22.73
2019-04-20T15:44:31.648Z,22.67
2019-04-20T15:47:04.254Z,23.14
2019-04-20T15:49:38.023Z,23.00
2019-04-20T15:52:12.425Z,23.18
2019-04-20T15:54:45.567Z,23.40
2019-04-20T15:57:23.293Z,23.79
2019-04-20T15:59:52.755Z,23.34
2019-04-20T16:02:36.356Z,23.77
2019-04-20T16:05:24.396Z,22.96
2019-04-20T16:08:01.956Z,23.21
2019-04-20T16:10:32.903Z,23.84
2019-04-20T16:13:18.219Z,23.76
2019-04-20T16:15:40.021Z,23.67
2019-04-20T16:18:13.469Z,24.01
2019-04-20T16:20:56.603Z,23.70
2019-04-20T16:23:22.743Z,23.54
2019-04-20T16:25:57.637Z,22.65
2019-04-20T16:28:31.933Z,22.38
2019-04-20T16:31:08.031Z,22.21
2019-04-20T16:33:39.628Z,22.54
2019-04-20T16:36:12.429Z,22.28
2019-04-20T16:38:45.610Z,22.46
2019-04-20T16:41:18.596Z,22.76
2019-04-20T16:43:51.693Z,22.69
2019-04-20T16:46:25.692Z,22.76
2019-04-20T16:48:59.038Z,23.03
2019-04-20T16:51:31.765Z,23.13
2019-04-20T16:54:05.684Z,23.61
2019-04-20T16:56:39.890Z,23.39
2019-04-20T16:59:14.215Z,22.86
2019-04-20T17:01:48.512Z,23.40
2019-04-20T17:04:24.017Z,22.99
2019-04-20T17:07:14.269Z,22.96
2019-04-20T17:09:49.672Z,22.63
2019-04-20T17:12:23.758Z,22.76
2019-04-20T17:14:57.796Z,23.07
2019-04-20T17:17:31.505Z,23.04
2019-04-20T17:20:07.215Z,23.52
2019-04-20T17:22:40.359Z,23.65
2019-04-20T17:25:16.315Z,24.06
2019-04-20T17:27:49.167Z,23.74
2019-04-20T17:30:25.544Z,24.32
2019-04-20T17:32:59.978Z,24.69
2019-04-20T17:35:43.507Z,25.12
2019-04-20T17:38:08.851Z,25.09
2019-04-20T17:41:01.539Z,25.49
2019-04-20T17:43:25.215Z,25.52
2019-04-20T17:46:02.212Z,25.53
2019-04-20T17:48:37.172Z,26.29
2019-04-20T17:51:25.418Z,26.17
2019-04-20T17:53:44.962Z,27.14
2019-04-20T17:56:12.003Z,26.99
2019-04-20T17:58:46.092Z,27.22
2019-04-20T18:01:36.060Z,28.89
2019-04-20T18:04:29.663Z,28.87
2019-04-20T18:06:47.871Z,28.91
2019-04-20T18:09:34.409Z,29.47
2019-04-20T18:11:49.975Z,29.41
2019-04-20T18:14:42.103Z,30.21
2019-04-20T18:17:10.444Z,31.27
2019-04-20T18:19:34.711Z,31.59
2019-04-20T18:22:12.298Z,31.77
2019-04-20T18:25:09.161Z,32.71
2019-04-20T18:27:38.350Z,32.63
2019-04-20T18:30:11.932Z,33.01
2019-04-20T18:32:33.701Z,33.66
2019-04-20T18:35:10.393Z,34.49
2019-04-20T18:37:44.189Z,35.60
2019-04-20T18:40:28.977Z,35.92
2019-04-20T18:43:03.959Z,36.56
2019-04-20T18:45:42.390Z,36.99
2019-04-20T18:48:16.030Z,37.30
2019-04-20T18:50:41.872Z,37.92
2019-04-20T18:53:16.657Z,37.91
2019-04-20T18:55:49.576Z,37.66
2019-04-20T18:58:20.388Z,39.00
2019-04-20T19:00:54.182Z,39.20
2019-04-20T19:03:33.725Z,39.02
2019-04-20T19:06:02.201Z,40.71
2019-04-20T19:08:40.507Z,41.19
2019-04-20T19:11:14.368Z,41.77
2019-04-20T19:13:47.760Z,43.06
2019-04-20T19:16:34.773Z,42.49
2019-04-20T19:19:17.905Z,41.13
2019-04-20T19:21:40.277Z,41.01
2019-04-20T19:24:16.290Z,41.53
2019-04-20T19:26:51.530Z,42.76
2019-04-20T19:29:31.300Z,43.07
2019-04-20T19:32:11.552Z,43.09
2019-04-20T19:34:45.412Z,43.78
2019-04-20T19:37:15.900Z,44.10
2019-04-20T19:39:53.258Z,45.59
2019-04-20T19:42:31.806Z,42.46
2019-04-20T19:45:02.019Z,41.96
2019-04-20T19:47:42.931Z,41.32
2019-04-20T19:50:31.308Z,41.45
2019-04-20T19:53:05.759Z,41.22
2019-04-20T19:55:25.853Z,41.21
2019-04-20T19:57:59.375Z,41.27
2019-04-20T20:00:24.873Z,41.43
2019-04-20T20:02:57.731Z,41.58
2019-04-20T20:05:37.435Z,41.77
2019-04-20T20:08:12.812Z,41.94
2019-04-20T20:10:43.744Z,42.11
2019-04-20T20:13:14.977Z,42.53
2019-04-20T20:15:52.589Z,42.76
2019-04-20T20:18:35.355Z,43.23
2019-04-20T20:21:12.379Z,43.37
2019-04-20T20:23:32.165Z,43.59
2019-04-20T20:26:07.184Z,44.23
2019-04-20T20:28:45.472Z,44.16
2019-04-20T20:31:24.557Z,44.66
2019-04-20T20:34:03.042Z,44.50
2019-04-20T20:36:28.939Z,45.05
2019-04-20T20:39:04.506Z,45.21
2019-04-20T20:41:44.939Z,45.60
2019-04-20T20:44:21.207Z,45.80
2019-04-20T20:46:55.337Z,46.60
2019-04-20T20:49:33.172Z,47.01
2019-04-20T20:52:09.792Z,47.48
2019-04-20T20:54:40.412Z,48.09
2019-04-20T20:57:06.877Z,48.36
2019-04-20T20:59:42.982Z,48.30
2019-04-20T21:02:15.845Z,48.15
2019-04-20T21:04:42.160Z,48.27
2019-04-20T21:07:16.337Z,48.11
2019-04-20T21:09:50.409Z,48.21
2019-04-20T21:12:24.899Z,48.56
2019-04-20T21:15:00.279Z,48.71
2019-04-20T21:17:41.727Z,48.99
2019-04-20T21:20:27.591Z,50.65
2019-04-20T21:23:03.875Z,51.31
2019-04-20T21:25:33.470Z,51.27
2019-04-20T21:28:00.616Z,51.59
2019-04-20T21:30:41.152Z,51.47
2019-04-20T21:33:09.432Z,51.55
2019-04-20T21:35:47.044Z,51.63
2019-04-20T21:38:18.542Z,52.16
2019-04-20T21:41:02.129Z,52.69
2019-04-20T21:43:29.939Z,52.98
2019-04-20T21:46:04.586Z,53.91
2019-04-20T21:48:51.821Z,54.17
2019-04-20T21:51:25.732Z,54.33
2019-04-20T21:53:44.164Z,54.39
2019-04-20T21:56:17.726Z,54.23
2019-04-20T21:58:56.577Z,54.62
2019-04-20T22:01:32.350Z,55.54
2019-04-20T22:04:00.496Z,56.07
2019-04-20T22:06:34.259Z,56.07
2019-04-20T22:09:12.600Z,56.34
2019-04-20T22:11:47.477Z,56.87
2019-04-20T22:14:24.272Z,57.76
2019-04-20T22:16:56.828Z,57.76
2019-04-20T22:19:38.756Z,58.62
2019-04-20T22:22:15.139Z,58.87
2019-04-20T22:24:53.921Z,58.97
2019-04-20T22:27:19.739Z,58.49
2019-04-20T22:29:46.540Z,58.49
2019-04-20T22:32:21.855Z,58.32
2019-04-20T22:34:59.882Z,57.75
2019-04-20T22:37:30.496Z,57.97
2019-04-20T22:40:05.194Z,57.97
2019-04-20T22:42:46.538Z,58.32
2019-04-20T22:45:15.473Z,58.37
2019-04-20T22:47:48.175Z,58.56
2019-04-20T22:50:33.971Z,58.59
2019-04-20T22:53:12.359Z,58.59
2019-04-20T22:55:54.915Z,58.93
2019-04-20T22:58:19.437Z,58.23
2019-04-20T23:00:49.065Z,58.18
2019-04-20T23:03:14.606Z,57.80
2019-04-20T23:05:48.912Z,57.80
2019-04-20T23:08:22.414Z,58.43
2019-04-20T23:10:55.629Z,59.31
2019-04-20T23:13:35.121Z,60.19
2019-04-20T23:16:04.437Z,60.29
2019-04-20T23:18:38.230Z,60.75
2019-04-20T23:21:14.379Z,62.04
2019-04-20T23:23:45.712Z,62.04
2019-04-20T23:26:25.550Z,61.57
2019-04-20T23:28:57.080Z,62.39
2019-04-20T23:31:29.079Z,61.91
2019-04-20T23:34:12.378Z,61.93
2019-04-20T23:36:41.729Z,62.26
2019-04-20T23:39:12.865Z,62.88
2019-04-20T23:41:53.727Z,63.14
2019-04-20T23:44:23.115Z,63.34
2019-04-20T23:47:09.747Z,63.67
2019-04-20T23:49:54.145Z,64.50
2019-04-20T23:52:39.019Z,65.21
2019-04-20T23:54:53.609Z,65.03
2019-04-20T23:57:19.825Z,65.16
2019-04-20T23:59:53.781Z,65.52
